Time;durP1;ratioP1;P1;durP2;ratioP2;P2;SDS_P1;SDS_P2;PMS_P1;PMS_P2;Temp;Humidity;BMP_temperature;BMP_pressure;BME280_temperature;BME280_humidity;BME280_pressure;Samples;Min_cycle;Max_cycle;Signal;HPM_P1;HPM_P2
2024/01/04 00:01:18;;;;;;;4.35;0.70;;;9.50;99.90;;;;;;5063601;28;20017;-74
2024/01/04 00:03:44;;;;;;;2.50;0.60;;;9.50;99.90;;;;;;5045444;28;20021;-74
2024/01/04 00:06:10;;;;;;;3.25;1.02;;;9.40;99.90;;;;;;5066798;28;20077;-75
2024/01/04 00:08:40;;;;;;;3.17;0.68;;;9.40;99.90;;;;;;5065903;28;20288;-75
2024/01/04 00:11:06;;;;;;;4.25;0.68;;;9.30;99.90;;;;;;5067197;28;20041;-74
2024/01/04 00:13:34;;;;;;;1.50;0.60;;;9.30;99.90;;;;;;5060686;28;20031;-75
2024/01/04 00:15:59;;;;;;;6.10;1.00;;;9.30;99.90;;;;;;5067624;28;20037;-74
2024/01/04 00:18:28;;;;;;;2.08;0.63;;;9.40;99.90;;;;;;5066884;28;20651;-75
2024/01/04 00:20:56;;;;;;;;;;;9.30;99.90;;;;;;5043519;28;20027;-75
2024/01/04 00:23:24;;;;;;;2.85;0.90;;;9.30;99.90;;;;;;5062823;28;19911;-75
2024/01/04 00:25:49;;;;;;;;;;;9.30;99.90;;;;;;5061130;28;20035;-74
2024/01/04 00:28:17;;;;;;;1.67;0.80;;;9.30;99.90;;;;;;5062634;28;19909;-76
2024/01/04 00:30:43;;;;;;;2.03;1.13;;;9.20;99.90;;;;;;5062112;28;20064;-74
2024/01/04 00:33:08;;;;;;;2.03;1.05;;;9.20;99.90;;;;;;5046934;28;20102;-74
2024/01/04 00:35:34;;;;;;;2.47;1.30;;;9.20;99.90;;;;;;5067947;28;20438;-74
2024/01/04 00:38:02;;;;;;;3.70;1.38;;;9.20;99.90;;;;;;5068921;28;20503;-74
2024/01/04 00:40:35;;;;;;;1.77;1.27;;;9.20;99.90;;;;;;5066510;28;20024;-74
2024/01/04 00:43:01;;;;;;;3.65;1.33;;;9.30;99.90;;;;;;5047471;28;20028;-74
2024/01/04 00:45:26;;;;;;;4.35;1.70;;;9.20;99.90;;;;;;5064388;28;20021;-74
2024/01/04 00:47:52;;;;;;;3.72;1.67;;;9.20;99.90;;;;;;5093852;22;20041;-92
2024/01/04 00:50:19;;;;;;;7.68;1.65;;;9.20;99.90;;;;;;5090638;28;20055;-92
2024/01/04 00:52:45;;;;;;;7.20;3.33;;;9.20;99.90;;;;;;5087822;28;20651;-92
2024/01/04 00:55:10;;;;;;;2.92;1.60;;;9.30;99.90;;;;;;5090137;28;20031;-92
2024/01/04 00:57:36;;;;;;;6.68;1.90;;;9.30;99.90;;;;;;5092694;28;20115;-93
2024/01/04 01:00:03;;;;;;;2.80;1.65;;;9.20;99.90;;;;;;5098183;28;20016;-92
2024/01/04 01:02:29;;;;;;;5.75;1.90;;;9.20;99.90;;;;;;5093249;28;20027;-93
2024/01/04 01:04:55;;;;;;;6.97;1.77;;;9.30;99.90;;;;;;5093816;28;20032;-93
2024/01/04 01:07:22;;;;;;;4.18;2.35;;;9.20;99.90;;;;;;5097634;28;20351;-91
2024/01/04 01:09:48;;;;;;;7.17;2.33;;;9.30;99.90;;;;;;5094929;28;20656;-92
2024/01/04 01:12:13;;;;;;;7.53;2.25;;;9.20;99.90;;;;;;5088520;28;20020;-93
2024/01/04 01:14:39;;;;;;;6.57;2.05;;;9.20;99.90;;;;;;5086768;28;20051;-93
2024/01/04 01:17:05;;;;;;;3.03;1.92;;;9.30;99.90;;;;;;5088593;28;20398;-93
2024/01/04 01:19:31;;;;;;;3.90;2.30;;;9.30;99.90;;;;;;5092752;28;20016;-92
2024/01/04 01:21:57;;;;;;;5.35;2.25;;;9.30;99.90;;;;;;5079193;28;20036;-93
2024/01/04 01:24:23;;;;;;;3.53;2.30;;;9.30;99.90;;;;;;5091422;28;20085;-93
2024/01/04 01:26:49;;;;;;;5.28;1.70;;;9.30;99.90;;;;;;5096461;28;20024;-93
2024/01/04 01:29:14;;;;;;;5.20;2.03;;;9.30;99.90;;;;;;5097183;28;20245;-93
2024/01/04 01:31:43;;;;;;;3.30;1.70;;;9.20;99.90;;;;;;5101854;28;20110;-91
2024/01/04 01:34:09;;;;;;;4.30;1.83;;;9.20;99.90;;;;;;5099270;28;20028;-92
2024/01/04 01:36:35;;;;;;;6.30;1.98;;;9.20;99.90;;;;;;5094827;28;20032;-92
2024/01/04 01:39:00;;;;;;;4.47;2.00;;;9.20;99.90;;;;;;5094271;28;20032;-92
2024/01/04 01:41:26;;;;;;;5.20;1.40;;;9.20;99.90;;;;;;5099304;28;20060;-93
2024/01/04 01:43:52;;;;;;;9.63;2.28;;;9.20;99.90;;;;;;5078577;28;20035;-93
2024/01/04 01:46:19;;;;;;;2.53;1.33;;;9.20;99.90;;;;;;5101903;28;20049;-93
2024/01/04 01:48:44;;;;;;;4.40;1.38;;;9.20;99.90;;;;;;5101566;28;20046;-93
2024/01/04 01:51:10;;;;;;;7.68;1.67;;;9.10;99.90;;;;;;5093420;28;20028;-91
2024/01/04 01:53:37;;;;;;;3.45;1.02;;;9.30;99.90;;;;;;5101709;28;20104;-92
2024/01/04 01:56:07;;;;;;;6.10;1.40;;;9.10;99.90;;;;;;5097728;28;20050;-93
2024/01/04 01:58:33;;;;;;;2.35;1.52;;;9.10;99.90;;;;;;5100027;28;20555;-92
2024/01/04 02:00:58;;;;;;;6.20;1.30;;;9.10;99.90;;;;;;5092860;28;20025;-93
2024/01/04 02:03:25;;;;;;;5.32;1.85;;;9.20;99.90;;;;;;5097138;28;20115;-92
2024/01/04 02:05:51;;;;;;;2.88;1.20;;;9.10;99.90;;;;;;5093841;28;20036;-91
2024/01/04 02:08:16;;;;;;;2.63;1.50;;;9.10;99.90;;;;;;5096940;28;20027;-91
2024/01/04 02:10:42;;;;;;;5.82;1.27;;;9.00;99.90;;;;;;5098143;28;20020;-92
2024/01/04 02:13:09;;;;;;;2.45;1.23;;;9.00;99.90;;;;;;5094739;28;20278;-92
2024/01/04 02:15:36;;;;;;;3.43;1.00;;;9.10;99.90;;;;;;5078942;28;20029;-93
2024/01/04 02:18:02;;;;;;;4.38;1.00;;;9.00;99.90;;;;;;5095557;28;20051;-92
2024/01/04 02:20:28;;;;;;;2.30;1.27;;;9.00;99.90;;;;;;5099090;28;20020;-91
2024/01/04 02:22:55;;;;;;;2.60;1.30;;;9.00;99.90;;;;;;5089802;28;20028;-92
2024/01/04 02:25:21;;;;;;;1.23;0.88;;;9.00;99.90;;;;;;5099290;28;20013;-92
2024/01/04 02:27:47;;;;;;;4.30;1.17;;;9.10;99.90;;;;;;5094581;28;20053;-95
2024/01/04 02:30:12;;;;;;;4.00;1.10;;;9.00;99.90;;;;;;5092372;28;20151;-93
2024/01/04 02:32:38;;;;;;;4.05;0.85;;;9.00;99.90;;;;;;5089520;28;20040;-93
2024/01/04 02:35:04;;;;;;;2.05;0.98;;;9.10;99.90;;;;;;5096093;28;20043;-93
2024/01/04 02:37:30;;;;;;;1.80;1.05;;;9.00;99.90;;;;;;5096585;28;20017;-94
2024/01/04 02:39:58;;;;;;;2.40;1.17;;;9.00;99.90;;;;;;5089388;28;20095;-93
2024/01/04 02:42:24;;;;;;;;;;;8.90;99.90;;;;;;5089169;28;20067;-94
2024/01/04 02:44:49;;;;;;;1.85;1.20;;;8.90;99.90;;;;;;5084687;28;19908;-93
2024/01/04 02:47:15;;;;;;;3.38;1.13;;;9.00;99.90;;;;;;5083218;28;20040;-92
2024/01/04 02:49:41;;;;;;;3.17;1.23;;;8.90;99.90;;;;;;5087744;28;20043;-93
2024/01/04 02:52:07;;;;;;;2.70;1.42;;;8.90;99.90;;;;;;5098622;28;20032;-93
2024/01/04 02:54:32;;;;;;;2.55;1.40;;;8.90;99.90;;;;;;5097081;28;20031;-93
2024/01/04 02:57:00;;;;;;;3.40;1.52;;;8.90;99.90;;;;;;5093953;28;20024;-93
2024/01/04 02:59:26;;;;;;;13.55;1.83;;;8.90;99.90;;;;;;5091969;28;20055;-93
2024/01/04 03:01:51;;;;;;;3.65;1.30;;;8.90;99.90;;;;;;5093671;28;20024;-94
2024/01/04 03:04:19;;;;;;;2.22;1.60;;;8.90;99.90;;;;;;5092589;28;20012;-93
2024/01/04 03:06:45;;;;;;;2.75;1.77;;;8.90;99.90;;;;;;5090888;28;20032;-93
2024/01/04 03:09:13;;;;;;;6.28;1.40;;;8.90;99.90;;;;;;5093251;28;20036;-92
2024/01/04 03:11:38;;;;;;;1.98;1.40;;;8.80;99.90;;;;;;5088753;28;20040;-93
2024/01/04 03:14:05;;;;;;;3.15;1.13;;;8.90;99.90;;;;;;5093060;28;20024;-93
2024/01/04 03:16:30;;;;;;;1.50;0.80;;;8.90;99.90;;;;;;5096040;28;20020;-93
2024/01/04 03:18:56;;;;;;;2.33;1.20;;;8.80;99.90;;;;;;5086080;28;20020;-93
2024/01/04 03:21:22;;;;;;;8.15;1.40;;;8.90;99.90;;;;;;5095201;28;20020;-92
2024/01/04 03:23:47;;;;;;;6.00;1.38;;;8.80;99.90;;;;;;5094947;28;20254;-93
2024/01/04 03:26:13;;;;;;;3.78;1.38;;;8.80;99.90;;;;;;5093236;28;20839;-92
2024/01/04 03:28:38;;;;;;;3.42;1.17;;;8.80;99.90;;;;;;5092319;28;20063;-93
2024/01/04 03:31:07;;;;;;;5.38;1.52;;;8.70;99.90;;;;;;5088145;28;20037;-93
2024/01/04 03:33:33;;;;;;;2.63;1.50;;;8.80;99.90;;;;;;5095972;28;20031;-93
2024/01/04 03:35:59;;;;;;;3.25;1.85;;;8.70;99.90;;;;;;5091494;28;20024;-93
2024/01/04 03:38:24;;;;;;;4.85;1.33;;;8.70;99.90;;;;;;5078784;28;20163;-94
2024/01/04 03:40:50;;;;;;;3.50;1.55;;;8.70;99.90;;;;;;5093700;28;20032;-93
2024/01/04 03:43:17;;;;;;;2.47;1.33;;;8.70;99.90;;;;;;5096959;28;20020;-94
2024/01/04 03:45:42;;;;;;;6.45;1.95;;;8.70;99.90;;;;;;5093287;28;20016;-93
2024/01/04 03:48:08;;;;;;;4.38;1.55;;;8.70;99.90;;;;;;5094423;28;20104;-93
2024/01/04 03:50:36;;;;;;;2.65;1.30;;;8.60;99.90;;;;;;5102078;28;20087;-93
2024/01/04 03:53:04;;;;;;;;;;;8.60;99.90;;;;;;5098943;28;20032;-93
2024/01/04 03:55:29;;;;;;;3.33;0.90;;;8.50;99.90;;;;;;5101493;28;19896;-94
2024/01/04 03:57:58;;;;;;;1.92;0.98;;;8.50;99.90;;;;;;5101429;28;20038;-94
2024/01/04 04:00:23;;;;;;;1.55;1.08;;;8.40;99.90;;;;;;5100496;28;20087;-93
2024/01/04 04:02:51;;;;;;;1.30;0.90;;;8.40;99.90;;;;;;5103112;28;20020;-93
2024/01/04 04:05:18;;;;;;;4.05;1.05;;;8.40;99.90;;;;;;5106515;28;20021;-94
2024/01/04 04:07:43;;;;;;;2.08;1.20;;;8.20;99.90;;;;;;5104458;28;20040;-93
2024/01/04 04:10:09;;;;;;;2.53;1.08;;;8.20;99.90;;;;;;5099153;28;20043;-93
2024/01/04 04:12:35;;;;;;;2.08;0.95;;;8.20;99.90;;;;;;5084353;28;20032;-94
2024/01/04 04:15:00;;;;;;;6.13;0.95;;;8.10;99.90;;;;;;5099386;28;20032;-94
2024/01/04 04:17:26;;;;;;;0.73;0.63;;;8.10;99.90;;;;;;5095613;28;20045;-94
2024/01/04 04:19:52;;;;;;;1.63;0.70;;;8.10;99.90;;;;;;5096586;28;20035;-95
2024/01/04 04:22:18;;;;;;;2.50;0.65;;;8.00;99.90;;;;;;5096762;28;20104;-95
2024/01/04 04:24:44;;;;;;;1.13;0.80;;;7.90;99.90;;;;;;5099268;28;20320;-95
2024/01/04 04:27:11;;;;;;;0.95;0.65;;;7.80;99.90;;;;;;5098537;28;20024;-92
2024/01/04 04:29:43;;;;;;;0.95;0.60;;;7.80;99.90;;;;;;5100623;28;20013;-94
2024/01/04 04:32:11;;;;;;;8.00;1.02;;;7.80;99.90;;;;;;5109107;28;20024;-94
2024/01/04 04:34:36;;;;;;;0.65;0.40;;;7.60;99.90;;;;;;5090877;28;20060;-94
2024/01/04 04:37:13;;;;;;;3.95;0.55;;;7.70;99.90;;;;;;5082859;28;20035;-94
2024/01/04 04:39:41;;;;;;;4.07;0.85;;;7.60;99.90;;;;;;5090374;28;20031;-93
2024/01/04 04:42:06;;;;;;;;;;;7.50;99.90;;;;;;5098440;28;20115;-94
2024/01/04 04:44:32;;;;;;;2.30;0.70;;;7.40;99.90;;;;;;5091654;28;19934;-94
2024/01/04 04:47:00;;;;;;;1.00;0.73;;;7.50;99.90;;;;;;5095614;28;20038;-95
2024/01/04 04:49:28;;;;;;;1.77;0.82;;;7.40;99.90;;;;;;5092911;28;20166;-94
2024/01/04 04:51:53;;;;;;;3.17;0.73;;;7.30;99.90;;;;;;5104534;28;20024;-92
2024/01/04 04:54:19;;;;;;;1.80;0.70;;;7.30;99.90;;;;;;5104657;28;20052;-93
2024/01/04 04:56:45;;;;;;;2.40;0.80;;;7.20;99.90;;;;;;5092841;28;20135;-93
2024/01/04 04:59:12;;;;;;;1.25;0.75;;;7.20;99.90;;;;;;5082940;28;20037;-93
2024/01/04 05:01:39;;;;;;;0.95;0.63;;;7.20;99.90;;;;;;5104858;28;20016;-93
2024/01/04 05:04:05;;;;;;;1.30;0.95;;;7.10;99.90;;;;;;5098046;28;20036;-92
2024/01/04 05:06:31;;;;;;;2.53;0.80;;;7.10;99.90;;;;;;5095939;28;20042;-93
2024/01/04 05:08:56;;;;;;;2.65;1.00;;;7.10;99.90;;;;;;5100456;28;20027;-92
2024/01/04 05:11:22;;;;;;;3.65;1.08;;;7.10;99.90;;;;;;5106785;28;20173;-93
2024/01/04 05:13:48;;;;;;;2.40;0.85;;;7.10;99.90;;;;;;5098801;28;20070;-92
2024/01/04 05:16:19;;;;;;;2.78;0.98;;;7.10;99.90;;;;;;5108183;28;20051;-93
2024/01/04 05:18:44;;;;;;;1.70;0.57;;;7.00;99.90;;;;;;5102372;27;20039;-91
2024/01/04 05:21:13;;;;;;;4.25;1.15;;;7.10;99.90;;;;;;5111592;28;20024;-93
2024/01/04 05:23:39;;;;;;;2.28;1.00;;;7.00;99.90;;;;;;5103137;28;20039;-92
2024/01/04 05:26:07;;;;;;;3.10;1.10;;;7.10;99.90;;;;;;5110176;28;20024;-92
2024/01/04 05:28:33;;;;;;;1.98;0.88;;;7.10;99.90;;;;;;5105723;28;20349;-92
2024/01/04 05:30:58;;;;;;;1.63;1.00;;;7.10;99.90;;;;;;5100861;28;20036;-93
2024/01/04 05:33:26;;;;;;;3.75;0.90;;;7.10;99.90;;;;;;5106080;28;20013;-92
2024/01/04 05:35:52;;;;;;;7.50;1.10;;;7.00;99.90;;;;;;5105993;28;20040;-94
2024/01/04 05:38:18;;;;;;;5.93;1.48;;;7.00;99.90;;;;;;5105690;28;20068;-93
2024/01/04 05:40:44;;;;;;;3.85;0.70;;;7.00;99.90;;;;;;5105484;28;20024;-93
2024/01/04 05:43:10;;;;;;;1.48;0.77;;;7.00;99.90;;;;;;5120603;27;20032;-92
2024/01/04 05:45:36;;;;;;;2.78;0.60;;;7.00;99.90;;;;;;5107945;28;20086;-93
2024/01/04 05:48:01;;;;;;;2.35;0.60;;;7.00;99.90;;;;;;5104179;28;20027;-92
2024/01/04 05:50:30;;;;;;;2.25;0.60;;;7.00;99.90;;;;;;5104254;28;20028;-92
2024/01/04 05:52:58;;;;;;;2.42;0.50;;;6.90;99.90;;;;;;5095313;28;20289;-93
2024/01/04 05:55:23;;;;;;;1.55;0.60;;;6.90;99.90;;;;;;5104417;28;20039;-93
2024/01/04 05:57:49;;;;;;;2.15;0.40;;;6.90;99.90;;;;;;5104068;28;20024;-92
2024/01/04 06:00:15;;;;;;;2.25;0.70;;;7.00;99.90;;;;;;5107458;28;20087;-92
2024/01/04 06:02:40;;;;;;;3.70;1.10;;;6.90;99.90;;;;;;5106338;28;20270;-92
2024/01/04 06:05:13;;;;;;;4.00;0.73;;;6.80;99.90;;;;;;5108156;28;20046;-92
2024/01/04 06:07:39;;;;;;;3.15;0.70;;;6.80;99.90;;;;;;5108386;28;20016;-93
2024/01/04 06:10:05;;;;;;;0.68;0.50;;;6.80;99.90;;;;;;5089289;28;20025;-93
2024/01/04 06:12:33;;;;;;;4.82;0.75;;;6.70;99.90;;;;;;5108683;28;20012;-94
2024/01/04 06:14:58;;;;;;;4.03;0.80;;;6.70;99.90;;;;;;5105787;28;20024;-93
2024/01/04 06:17:24;;;;;;;1.92;0.95;;;6.60;99.90;;;;;;5107958;28;20047;-92
2024/01/04 06:19:51;;;;;;;4.25;0.98;;;6.60;99.90;;;;;;5101270;28;20074;-92
2024/01/04 06:22:16;;;;;;;3.97;0.68;;;6.70;99.90;;;;;;5106483;28;20017;-94
2024/01/04 06:24:42;;;;;;;1.88;0.47;;;6.60;99.90;;;;;;5107167;28;20042;-94
2024/01/04 06:27:09;;;;;;;9.50;0.47;;;6.60;99.90;;;;;;5103597;28;20040;-93
2024/01/04 06:29:35;;;;;;;2.43;0.53;;;6.60;99.90;;;;;;5107973;28;20039;-93
2024/01/04 06:32:00;;;;;;;3.65;0.60;;;6.60;99.90;;;;;;5108920;28;20024;-93
2024/01/04 06:34:30;;;;;;;2.42;0.50;;;6.60;99.90;;;;;;5107321;28;20008;-92
2024/01/04 06:36:55;;;;;;;0.32;0.20;;;6.60;99.90;;;;;;5106939;28;20052;-92
2024/01/04 06:39:21;;;;;;;1.40;0.70;;;6.60;99.90;;;;;;5106650;28;20026;-93
2024/01/04 06:41:47;;;;;;;2.50;0.68;;;6.60;99.90;;;;;;5110534;28;20083;-91
2024/01/04 06:44:12;;;;;;;1.95;0.50;;;6.50;99.90;;;;;;5108583;28;20032;-93
2024/01/04 06:46:38;;;;;;;1.85;0.60;;;6.60;99.90;;;;;;5109428;28;20038;-92
2024/01/04 06:49:06;;;;;;;3.80;0.70;;;6.60;99.90;;;;;;5106627;28;20032;-92
2024/01/04 06:51:32;;;;;;;1.73;0.50;;;6.50;99.90;;;;;;5101578;28;20073;-93
2024/01/04 06:53:57;;;;;;;3.03;0.57;;;6.50;99.90;;;;;;5107671;28;20028;-93
2024/01/04 06:56:23;;;;;;;2.22;0.60;;;6.50;99.90;;;;;;5107050;28;20048;-92
2024/01/04 06:58:49;;;;;;;0.77;0.35;;;6.50;99.90;;;;;;5100839;28;20040;-92
2024/01/04 07:01:14;;;;;;;2.35;0.55;;;6.50;99.90;;;;;;5102354;28;20046;-91
2024/01/04 07:03:40;;;;;;;2.65;0.60;;;6.40;99.90;;;;;;5105638;28;20084;-92
2024/01/04 07:06:06;;;;;;;0.40;0.40;;;6.50;99.90;;;;;;5106218;28;20036;-91
2024/01/04 07:08:32;;;;;;;1.67;0.60;;;6.30;99.90;;;;;;5104352;28;20044;-93
2024/01/04 07:10:57;;;;;;;1.75;0.50;;;6.40;99.90;;;;;;5105283;28;20031;-95
2024/01/04 07:13:25;;;;;;;2.78;0.40;;;6.50;99.90;;;;;;5104507;28;20203;-93
2024/01/04 07:15:51;;;;;;;;;;;6.40;99.90;;;;;;5102306;28;20043;-92
2024/01/04 07:18:18;;;;;;;3.20;0.52;;;6.40;99.90;;;;;;5102360;28;19983;-92
2024/01/04 07:20:43;;;;;;;1.38;0.50;;;6.40;99.90;;;;;;5104664;28;20036;-93
2024/01/04 07:23:09;;;;;;;1.85;0.65;;;6.40;99.90;;;;;;5100035;28;20036;-93
2024/01/04 07:25:36;;;;;;;1.73;0.40;;;6.30;99.90;;;;;;5076407;28;20137;-91
2024/01/04 07:28:03;;;;;;;1.90;0.47;;;6.30;99.90;;;;;;5099828;28;20028;-91
2024/01/04 07:30:29;;;;;;;4.97;0.38;;;6.50;99.90;;;;;;5092216;28;20024;-91
2024/01/04 07:32:54;;;;;;;3.40;0.50;;;6.40;99.90;;;;;;5097726;28;20055;-91
2024/01/04 07:35:23;;;;;;;1.70;0.38;;;6.30;99.90;;;;;;5097703;28;20016;-91
2024/01/04 07:37:51;;;;;;;2.20;0.75;;;6.20;99.90;;;;;;5100996;28;20055;-93
2024/01/04 07:40:17;;;;;;;1.20;0.40;;;6.20;99.90;;;;;;5101483;28;20032;-91
2024/01/04 07:42:45;;;;;;;1.77;0.45;;;6.20;99.90;;;;;;5099549;28;20234;-91
2024/01/04 07:45:11;;;;;;;0.93;0.50;;;6.20;99.90;;;;;;5099755;28;20110;-91
2024/01/04 07:47:42;;;;;;;1.60;0.60;;;6.20;99.90;;;;;;5095648;28;20381;-91
2024/01/04 07:50:08;;;;;;;2.47;0.70;;;6.20;99.90;;;;;;5091719;28;20008;-91
2024/01/04 07:52:34;;;;;;;1.27;0.50;;;6.20;99.90;;;;;;5079104;28;20080;-92
2024/01/04 07:55:00;;;;;;;2.28;0.52;;;6.20;99.90;;;;;;5095070;28;20120;-92
2024/01/04 07:57:25;;;;;;;2.30;0.98;;;6.30;99.90;;;;;;5097966;28;20045;-93
2024/01/04 07:59:53;;;;;;;3.13;0.60;;;6.10;99.90;;;;;;5096435;28;20063;-92
2024/01/04 08:02:18;;;;;;;1.67;0.77;;;6.20;99.90;;;;;;5078357;28;20057;-92
2024/01/04 08:04:44;;;;;;;0.88;0.75;;;6.10;99.90;;;;;;5096410;28;20029;-92
2024/01/04 08:07:09;;;;;;;0.60;0.60;;;6.20;99.90;;;;;;5101030;28;20242;-91
2024/01/04 08:09:35;;;;;;;1.70;0.93;;;6.10;99.90;;;;;;5101280;28;20028;-91
2024/01/04 08:12:01;;;;;;;0.77;0.68;;;6.20;99.90;;;;;;5101481;28;21022;-91
2024/01/04 08:14:26;;;;;;;2.92;0.98;;;6.10;99.90;;;;;;5101634;28;20279;-92
2024/01/04 08:16:52;;;;;;;3.72;0.88;;;6.10;99.90;;;;;;5119294;27;20291;-91
2024/01/04 08:19:18;;;;;;;1.17;0.80;;;6.00;99.90;;;;;;5098731;28;20088;-90
2024/01/04 08:21:43;;;;;;;0.93;0.70;;;6.10;99.90;;;;;;5101372;28;20017;-92
2024/01/04 08:24:11;;;;;;;1.42;0.90;;;6.00;99.90;;;;;;5097915;28;20016;-92
2024/01/04 08:26:43;;;;;;;1.50;1.10;;;6.00;99.90;;;;;;5097283;28;20028;-92
2024/01/04 08:29:09;;;;;;;4.70;1.00;;;5.90;99.90;;;;;;5097339;28;20020;-93
2024/01/04 08:31:36;;;;;;;3.72;1.17;;;5.90;99.90;;;;;;5077907;28;20025;-92
2024/01/04 08:34:07;;;;;;;3.58;1.40;;;5.90;99.90;;;;;;5092416;28;20066;-92
2024/01/04 08:36:32;;;;;;;3.33;1.20;;;5.80;99.90;;;;;;5090787;28;20016;-92
2024/01/04 08:38:58;;;;;;;2.45;0.88;;;5.80;99.90;;;;;;5098469;28;20100;-92
2024/01/04 08:41:34;;;;;;;2.33;1.20;;;5.80;99.90;;;;;;5101926;28;20100;-96
2024/01/04 08:43:59;;;;;;;4.47;1.42;;;5.80;99.90;;;;;;5101595;27;20024;-94
2024/01/04 08:46:37;;;;;;;6.50;1.20;;;5.80;99.90;;;;;;5102038;28;20035;-96
2024/01/04 08:49:12;;;;;;;4.88;1.15;;;5.80;99.90;;;;;;5098918;27;20040;-95
2024/01/04 08:51:38;;;;;;;4.88;1.88;;;5.80;99.90;;;;;;5094976;22;20024;-70
2024/01/04 08:54:04;;;;;;;3.47;2.05;;;5.70;99.90;;;;;;5081661;28;20081;-70
2024/01/04 08:56:33;;;;;;;2.13;1.40;;;5.80;99.90;;;;;;5082164;28;20464;-72
2024/01/04 08:59:00;;;;;;;5.20;1.45;;;5.80;99.90;;;;;;5086870;28;20016;-70
2024/01/04 09:01:25;;;;;;;4.65;1.42;;;5.90;99.90;;;;;;5080231;28;20016;-70
2024/01/04 09:03:54;;;;;;;1.88;1.42;;;5.70;99.90;;;;;;5084879;28;20037;-70
2024/01/04 09:06:22;;;;;;;2.78;1.90;;;5.80;99.90;;;;;;5083759;28;20107;-70
2024/01/04 09:08:50;;;;;;;2.60;1.80;;;5.80;99.90;;;;;;5084322;28;20075;-70
2024/01/04 09:11:16;;;;;;;;;;;5.90;99.90;;;;;;5084542;28;20060;-69
2024/01/04 09:13:44;;;;;;;4.05;1.88;;;5.80;99.90;;;;;;5084607;28;19951;-70
2024/01/04 09:16:10;;;;;;;;;;;5.80;99.90;;;;;;5083883;28;20035;-70
2024/01/04 09:18:35;;;;;;;3.40;1.85;;;5.80;99.90;;;;;;5084298;28;19915;-70
2024/01/04 09:21:01;;;;;;;4.90;1.73;;;5.80;99.90;;;;;;5083867;28;20404;-70
2024/01/04 09:23:26;;;;;;;4.18;2.22;;;5.80;99.90;;;;;;5079104;28;20112;-70
2024/01/04 09:25:52;;;;;;;2.75;1.90;;;5.80;99.90;;;;;;5078636;28;20043;-70
2024/01/04 09:28:18;;;;;;;3.97;2.20;;;5.80;99.90;;;;;;5085992;28;20092;-70
2024/01/04 09:30:46;;;;;;;3.15;2.05;;;5.80;99.90;;;;;;5062837;28;20165;-70
2024/01/04 09:33:12;;;;;;;;;;;5.80;99.90;;;;;;5087013;28;20514;-70
2024/01/04 09:35:41;;;;;;;3.00;2.10;;;5.80;99.90;;;;;;5084668;28;19912;-70
2024/01/04 09:38:06;;;;;;;4.78;2.58;;;5.70;99.90;;;;;;5084506;28;20020;-70
2024/01/04 09:40:32;;;;;;;6.15;2.55;;;5.70;99.90;;;;;;5085458;28;20529;-69
2024/01/04 09:43:01;;;;;;;6.25;2.38;;;5.80;99.90;;;;;;5086402;28;20051;-70
2024/01/04 09:45:29;;;;;;;4.43;2.17;;;5.70;99.90;;;;;;5080220;28;20417;-70
2024/01/04 09:47:59;;;;;;;3.00;2.08;;;5.70;99.90;;;;;;5078688;28;20035;-70
2024/01/04 09:50:26;;;;;;;3.45;2.13;;;5.80;99.90;;;;;;5080594;28;20039;-70
2024/01/04 09:52:56;;;;;;;7.80;2.28;;;5.80;99.90;;;;;;5082195;28;20509;-71
2024/01/04 09:55:22;;;;;;;5.18;2.35;;;5.80;99.90;;;;;;5089404;28;20596;-70
2024/01/04 09:57:48;;;;;;;3.58;2.47;;;5.90;99.90;;;;;;5083801;28;20024;-71
2024/01/04 10:00:15;;;;;;;4.55;2.20;;;5.90;99.90;;;;;;5079351;28;20035;-70
2024/01/04 10:02:42;;;;;;;6.50;2.70;;;5.90;99.90;;;;;;5084858;28;20566;-70
2024/01/04 10:05:14;;;;;;;4.47;2.58;;;6.00;99.90;;;;;;5079008;28;20786;-70
2024/01/04 10:07:47;;;;;;;7.28;3.35;;;6.00;99.90;;;;;;5084767;28;20040;-70
2024/01/04 10:10:19;;;;;;;4.28;2.75;;;6.00;99.90;;;;;;5087054;28;20036;-71
2024/01/04 10:12:46;;;;;;;4.45;2.88;;;5.90;99.90;;;;;;5082542;28;20051;-71
2024/01/04 10:15:15;;;;;;;5.70;2.40;;;5.90;99.90;;;;;;5084868;28;20027;-70
2024/01/04 10:17:41;;;;;;;3.92;2.22;;;5.90;99.90;;;;;;5085125;28;20047;-70
2024/01/04 10:20:08;;;;;;;6.30;2.30;;;5.90;99.90;;;;;;5082200;28;20020;-70
2024/01/04 10:22:34;;;;;;;5.05;2.33;;;5.90;99.90;;;;;;5065642;28;20628;-70
2024/01/04 10:25:07;;;;;;;2.58;1.85;;;5.90;99.90;;;;;;5078614;28;20327;-71
2024/01/04 10:27:32;;;;;;;3.30;1.58;;;5.90;99.90;;;;;;5081328;28;20027;-70
2024/01/04 10:30:06;;;;;;;10.85;2.25;;;5.90;99.90;;;;;;5079677;28;20020;-70
2024/01/04 10:32:32;;;;;;;3.13;2.05;;;5.90;99.90;;;;;;5078203;28;20024;-70
2024/01/04 10:35:08;;;;;;;5.13;2.83;;;5.90;99.90;;;;;;5084311;28;20031;-70
2024/01/04 10:37:35;;;;;;;4.80;2.20;;;6.00;99.90;;;;;;5083974;28;20055;-70
2024/01/04 10:40:05;;;;;;;2.95;1.98;;;6.00;99.90;;;;;;5086383;28;20513;-70
2024/01/04 10:42:32;;;;;;;3.47;2.13;;;6.00;99.90;;;;;;5081791;28;20016;-69
2024/01/04 10:44:59;;;;;;;4.50;2.35;;;6.10;99.90;;;;;;5065767;28;20023;-70
2024/01/04 10:47:25;;;;;;;3.78;1.88;;;6.10;99.90;;;;;;5084871;28;20019;-74
2024/01/04 10:49:58;;;;;;;3.85;2.42;;;6.20;99.90;;;;;;5082023;28;20028;-71
2024/01/04 10:52:28;;;;;;;2.42;2.00;;;6.20;99.90;;;;;;5084321;28;20044;-71
2024/01/04 10:54:55;;;;;;;4.05;1.90;;;6.20;99.90;;;;;;5077668;28;20386;-71
2024/01/04 10:57:22;;;;;;;2.08;1.17;;;6.20;99.90;;;;;;5080993;28;20024;-71
2024/01/04 10:59:50;;;;;;;4.47;1.05;;;6.20;99.90;;;;;;5080185;28;20804;-70
2024/01/04 11:02:17;;;;;;;1.80;0.60;;;6.20;99.90;;;;;;5076208;28;20028;-71
2024/01/04 11:04:43;;;;;;;2.75;0.73;;;6.20;99.90;;;;;;5080034;28;20372;-71
2024/01/04 11:07:09;;;;;;;3.25;0.68;;;6.10;99.90;;;;;;5079360;28;20406;-71
2024/01/04 11:09:35;;;;;;;3.00;0.73;;;6.10;99.90;;;;;;5081486;28;20077;-71
2024/01/04 11:12:05;;;;;;;2.35;0.47;;;6.10;99.90;;;;;;5081365;28;20034;-70
2024/01/04 11:14:31;;;;;;;2.45;0.40;;;6.00;99.90;;;;;;5081969;28;20024;-71
2024/01/04 11:17:27;;;;;;;0.57;0.50;;;5.90;99.90;;;;;;5079225;28;20029;-71
2024/01/04 11:20:13;;;;;;;3.10;0.50;;;5.90;99.90;;;;;;5077563;28;20123;-71
2024/01/04 11:22:42;;;;;;;2.75;0.68;;;5.80;99.90;;;;;;5082983;28;20021;-71
2024/01/04 11:25:31;;;;;;;4.82;0.65;;;5.80;99.90;;;;;;5083904;28;20890;-71
2024/01/04 11:27:58;;;;;;;1.08;0.57;;;5.80;99.90;;;;;;5082278;28;20027;-71
2024/01/04 11:30:24;;;;;;;1.83;0.50;;;5.80;99.90;;;;;;5064731;28;20085;-71
2024/01/04 11:32:50;;;;;;;1.40;0.60;;;5.80;99.90;;;;;;5081049;28;20419;-71
2024/01/04 11:35:15;;;;;;;2.35;0.60;;;5.80;99.90;;;;;;5082592;28;20035;-71
2024/01/04 11:37:49;;;;;;;2.38;0.88;;;5.80;99.90;;;;;;5080867;28;20067;-71
2024/01/04 11:40:24;;;;;;;1.52;0.77;;;5.80;99.90;;;;;;5078253;28;20066;-70
2024/01/04 11:42:50;;;;;;;1.55;0.70;;;5.80;99.90;;;;;;5081891;28;20046;-70
2024/01/04 11:45:17;;;;;;;3.92;0.57;;;5.80;99.90;;;;;;5080234;28;20405;-70
2024/01/04 11:47:47;;;;;;;1.40;0.57;;;5.80;99.90;;;;;;5085739;28;20107;-70
2024/01/04 11:50:16;;;;;;;7.60;1.92;;;5.80;99.90;;;;;;5079464;28;20036;-70
2024/01/04 11:52:43;;;;;;;2.20;1.13;;;5.90;99.90;;;;;;5078885;28;20066;-70
2024/01/04 11:55:12;;;;;;;5.30;1.77;;;5.90;99.90;;;;;;5082771;28;20048;-70
2024/01/04 11:57:39;;;;;;;3.17;1.15;;;6.00;99.90;;;;;;5083429;28;20024;-70
2024/01/04 12:00:15;;;;;;;2.33;1.13;;;6.00;99.90;;;;;;5080418;28;20024;-70
2024/01/04 12:02:41;;;;;;;3.58;0.70;;;6.10;99.90;;;;;;5079973;28;20036;-70
2024/01/04 12:05:07;;;;;;;1.38;0.55;;;6.10;99.90;;;;;;5076443;28;20111;-70
2024/01/04 12:07:36;;;;;;;2.75;0.88;;;6.00;99.90;;;;;;5079588;28;20138;-71
2024/01/04 12:10:02;;;;;;;3.38;1.02;;;6.10;99.90;;;;;;5078863;28;20032;-71
2024/01/04 12:12:31;;;;;;;1.80;0.80;;;6.10;99.90;;;;;;5081224;28;20114;-70
2024/01/04 12:14:58;;;;;;;1.92;0.98;;;6.10;99.90;;;;;;5078008;28;20024;-71
2024/01/04 12:17:23;;;;;;;3.57;0.80;;;6.20;99.90;;;;;;5075660;28;20028;-70
2024/01/04 12:19:53;;;;;;;5.97;1.05;;;6.20;99.90;;;;;;5082247;28;20085;-70
2024/01/04 12:22:20;;;;;;;1.60;0.60;;;6.30;99.90;;;;;;5077775;28;20024;-70
2024/01/04 12:24:48;;;;;;;2.85;0.77;;;6.30;99.90;;;;;;5081593;28;20025;-70
2024/01/04 12:27:13;;;;;;;1.00;0.57;;;6.30;99.90;;;;;;5082599;28;20398;-70
2024/01/04 12:29:42;;;;;;;0.60;0.50;;;6.30;99.90;;;;;;5083675;28;20032;-71
2024/01/04 12:32:08;;;;;;;3.17;0.82;;;6.30;99.90;;;;;;5082322;28;20024;-70
2024/01/04 12:34:33;;;;;;;1.20;0.80;;;6.30;99.90;;;;;;5083940;28;20038;-71
2024/01/04 12:37:07;;;;;;;3.42;1.02;;;6.30;99.90;;;;;;5083871;28;20427;-70
2024/01/04 12:39:35;;;;;;;2.97;1.48;;;6.20;99.90;;;;;;5081333;28;20111;-70
2024/01/04 12:42:04;;;;;;;6.00;1.17;;;6.20;99.90;;;;;;5090539;28;20032;-70
2024/01/04 12:44:29;;;;;;;3.45;0.80;;;6.20;99.90;;;;;;5080033;28;20020;-70
2024/01/04 12:47:04;;;;;;;6.32;1.20;;;6.20;99.90;;;;;;5083053;22;20570;-71
2024/01/04 12:49:30;;;;;;;3.50;0.90;;;6.20;99.90;;;;;;5079201;28;20060;-70
2024/01/04 12:51:55;;;;;;;1.77;0.77;;;6.20;99.90;;;;;;5079471;28;20508;-70
2024/01/04 12:54:21;;;;;;;2.15;0.70;;;6.20;99.90;;;;;;5067763;28;20053;-70
2024/01/04 12:56:47;;;;;;;1.30;0.65;;;6.20;99.90;;;;;;5082017;28;20028;-70
2024/01/04 12:59:15;;;;;;;3.42;0.73;;;6.20;99.90;;;;;;5084298;28;20082;-70